createdAt,value
2018-12-16T00:01:48.806Z,1.26
2018-12-16T00:04:15.572Z,0.59
2018-12-16T00:06:42.306Z,1.04
2018-12-16T00:09:09.073Z,0.50
2018-12-16T00:11:35.813Z,1.04
2018-12-16T00:14:02.588Z,0.73
2018-12-16T00:16:29.328Z,1.27
2018-12-16T00:18:56.123Z,0.84
2018-12-16T00:21:22.860Z,1.22
2018-12-16T00:23:49.629Z,0.69
2018-12-16T00:26:16.383Z,1.00
2018-12-16T00:28:43.136Z,0.53
2018-12-16T00:31:09.891Z,1.16
2018-12-16T00:33:36.681Z,0.68
2018-12-16T00:36:03.420Z,1.14
2018-12-16T00:55:35.839Z,1.25
2018-12-16T00:58:02.604Z,0.59
2018-12-16T01:00:29.407Z,1.23
2018-12-16T01:02:56.113Z,1.30
2018-12-16T01:05:22.849Z,1.28
2018-12-16T01:07:49.596Z,0.94
2018-12-16T01:10:16.359Z,1.24
2018-12-16T01:12:43.096Z,0.70
2018-12-16T01:15:09.860Z,1.14
2018-12-16T01:17:36.600Z,1.28
2018-12-16T01:20:04.616Z,0.74
2018-12-16T01:22:31.360Z,1.11
2018-12-16T01:24:58.160Z,0.76
2018-12-16T01:27:24.896Z,0.95
2018-12-16T01:29:51.664Z,1.06
2018-12-16T01:32:18.408Z,0.65
2018-12-16T01:34:45.165Z,1.01
2018-12-16T01:37:11.913Z,0.82
2018-12-16T01:39:38.673Z,1.12
2018-12-16T01:42:05.424Z,1.31
2018-12-16T01:44:32.190Z,0.94
2018-12-16T01:46:58.944Z,0.97
2018-12-16T01:49:25.728Z,0.98
2018-12-16T01:51:52.500Z,0.58
2018-12-16T01:54:19.260Z,0.74
2018-12-16T01:56:46.013Z,0.53
2018-12-16T01:59:12.776Z,0.66
2018-12-16T02:01:54.048Z,0.50
2018-12-16T02:04:20.825Z,0.23
2018-12-16T02:06:47.573Z,0.26
2018-12-16T02:09:14.339Z,0.27
2018-12-16T02:11:41.073Z,0.54
2018-12-16T02:14:07.848Z,0.65
2018-12-16T02:16:34.589Z,0.49
2018-12-16T02:19:01.448Z,0.83
2018-12-16T02:21:28.196Z,0.46
2018-12-16T02:23:54.960Z,0.64
2018-12-16T02:26:21.705Z,0.89
2018-12-16T02:28:48.464Z,0.37
2018-12-16T02:31:15.204Z,0.76
2018-12-16T02:33:41.969Z,0.97
2018-12-16T02:36:08.713Z,0.54
2018-12-16T02:38:35.468Z,0.66
2018-12-16T02:41:02.196Z,0.73
2018-12-16T02:43:28.965Z,0.49
2018-12-16T02:45:55.711Z,0.52
2018-12-16T02:48:22.469Z,0.47
2018-12-16T02:50:49.225Z,0.59
2018-12-16T02:53:15.976Z,0.49
2018-12-16T02:55:42.736Z,0.72
2018-12-16T02:58:09.480Z,0.79
2018-12-16T03:00:36.396Z,0.62
2018-12-16T03:03:03.141Z,1.01
2018-12-16T03:05:29.897Z,0.96
2018-12-16T03:07:56.648Z,1.02
2018-12-16T03:10:23.420Z,0.74
2018-12-16T03:12:50.143Z,0.83
2018-12-16T03:15:16.906Z,0.93
2018-12-16T03:17:43.652Z,0.45
2018-12-16T03:20:10.408Z,0.65
2018-12-16T03:22:37.166Z,0.80
2018-12-16T03:25:04.814Z,0.40
2018-12-16T03:27:31.553Z,0.75
2018-12-16T03:29:58.319Z,0.77
2018-12-16T03:32:25.046Z,0.74
2018-12-16T03:34:51.808Z,0.81
2018-12-16T03:37:18.541Z,0.79
2018-12-16T03:39:45.312Z,0.31
2018-12-16T03:42:12.045Z,0.49
2018-12-16T03:44:38.816Z,0.51
2018-12-16T03:47:05.560Z,0.07
2018-12-16T03:49:32.340Z,0.28
2018-12-16T03:51:59.092Z,-0.40
2018-12-16T03:54:25.855Z,-0.37
2018-12-16T03:56:52.587Z,-0.31
2018-12-16T03:59:19.348Z,-0.49
2018-12-16T04:01:51.849Z,-0.38
2018-12-16T04:04:18.608Z,-0.65
2018-12-16T04:06:45.344Z,-0.41
2018-12-16T04:09:12.140Z,-0.46
2018-12-16T04:11:38.888Z,-0.92
2018-12-16T04:14:05.663Z,-0.42
2018-12-16T04:16:32.403Z,-0.44
2018-12-16T04:18:59.177Z,-0.55
2018-12-16T04:21:25.934Z,-0.54
2018-12-16T04:23:52.669Z,-0.34
2018-12-16T04:26:19.445Z,-0.21
2018-12-16T04:28:46.198Z,-0.57
2018-12-16T04:31:13.031Z,-0.18
2018-12-16T04:33:39.765Z,-0.38
2018-12-16T04:36:06.548Z,-0.55
2018-12-16T04:38:33.282Z,-0.44
2018-12-16T04:41:00.048Z,-0.42
2018-12-16T04:43:26.793Z,-0.78
2018-12-16T04:45:53.539Z,-0.69
2018-12-16T04:48:20.301Z,-0.77
2018-12-16T04:50:47.091Z,-1.16
2018-12-16T04:53:13.835Z,-0.99
2018-12-16T04:55:40.578Z,-0.83
2018-12-16T04:58:07.317Z,-1.11
2018-12-16T05:00:34.076Z,-1.23
2018-12-16T05:03:00.818Z,-1.16
2018-12-16T05:05:27.579Z,-1.41
2018-12-16T05:07:54.336Z,-1.15
2018-12-16T05:10:27.660Z,-0.88
2018-12-16T05:12:54.427Z,-1.01
2018-12-16T05:15:21.204Z,-1.07
2018-12-16T05:17:47.944Z,-0.87
2018-12-16T05:20:14.712Z,-0.68
2018-12-16T05:22:41.466Z,-0.95
2018-12-16T05:25:08.213Z,-1.07
2018-12-16T05:27:34.944Z,-1.02
2018-12-16T05:30:01.727Z,-1.15
2018-12-16T05:32:28.472Z,-1.04
2018-12-16T05:34:55.240Z,-1.08
2018-12-16T05:37:21.992Z,-0.91
2018-12-16T05:39:48.755Z,-0.69
2018-12-16T05:42:15.497Z,-0.79
2018-12-16T05:44:42.255Z,-0.60
2018-12-16T05:47:08.980Z,-0.62
2018-12-16T05:49:35.760Z,-0.76
2018-12-16T05:52:02.566Z,-0.54
2018-12-16T05:54:29.316Z,-0.35
2018-12-16T05:56:56.068Z,-0.59
2018-12-16T05:59:22.832Z,-0.33
2018-12-16T06:01:49.580Z,-0.22
2018-12-16T06:04:16.355Z,-0.55
2018-12-16T06:06:43.108Z,-0.15
2018-12-16T06:09:09.853Z,0.01
2018-12-16T06:11:36.620Z,-0.69
2018-12-16T06:14:03.363Z,-0.13
2018-12-16T06:16:30.127Z,-0.12
2018-12-16T06:18:56.964Z,-0.41
2018-12-16T06:21:23.709Z,0.02
2018-12-16T06:23:55.587Z,0.20
2018-12-16T06:26:17.216Z,-0.33
2018-12-16T06:28:43.966Z,-0.02
2018-12-16T06:31:10.720Z,0.17
2018-12-16T06:33:37.460Z,0.19
2018-12-16T06:36:04.240Z,-0.30
2018-12-16T06:38:31.072Z,-0.13
2018-12-16T06:40:57.832Z,-0.26
2018-12-16T06:43:24.596Z,-0.51
2018-12-16T06:45:51.348Z,-0.72
2018-12-16T06:48:18.091Z,-0.79
2018-12-16T06:50:44.889Z,-0.90
2018-12-16T06:53:11.580Z,-0.90
2018-12-16T06:55:43.241Z,-0.87
2018-12-16T06:58:05.252Z,-1.34
2018-12-16T07:00:32.007Z,-0.99
2018-12-16T07:02:58.772Z,-0.99
2018-12-16T07:05:25.545Z,-1.28
2018-12-16T07:07:52.293Z,-0.88
2018-12-16T07:10:19.052Z,-0.77
2018-12-16T07:12:45.792Z,-0.92
2018-12-16T07:15:12.589Z,-1.25
2018-12-16T07:17:39.584Z,-0.86
2018-12-16T07:20:06.751Z,-1.11
2018-12-16T07:22:33.487Z,-0.99
2018-12-16T07:25:00.376Z,-0.87
2018-12-16T07:27:27.116Z,-0.94
2018-12-16T07:29:53.872Z,-0.55
2018-12-16T07:32:20.608Z,-0.40
2018-12-16T07:34:47.371Z,-0.78
2018-12-16T07:37:18.981Z,-0.14
2018-12-16T07:39:40.857Z,-0.09
2018-12-16T07:42:07.632Z,-0.54
2018-12-16T07:44:34.368Z,-0.30
2018-12-16T07:48:24.473Z,-0.27
2018-12-16T07:50:51.251Z,0.19
2018-12-16T07:53:18.012Z,0.41
2018-12-16T07:55:44.766Z,0.52
2018-12-16T07:58:11.492Z,0.28
2018-12-16T08:00:38.378Z,0.80
2018-12-16T08:03:05.000Z,0.57
2018-12-16T08:05:31.785Z,-0.04
2018-12-16T08:07:58.539Z,-0.05
2018-12-16T08:10:25.296Z,-0.04
2018-12-16T08:12:52.036Z,-0.17
2018-12-16T08:15:18.799Z,-0.29
2018-12-16T08:17:45.536Z,0.05
2018-12-16T08:20:12.328Z,0.58
2018-12-16T08:22:39.156Z,0.47
2018-12-16T08:25:05.924Z,0.91
2018-12-16T08:27:32.736Z,0.66
2018-12-16T08:29:59.489Z,0.49
2018-12-16T08:32:26.244Z,0.12
2018-12-16T08:34:52.983Z,0.10
2018-12-16T08:37:19.828Z,0.36
2018-12-16T08:39:46.577Z,-0.17
2018-12-16T08:42:13.340Z,0.12
2018-12-16T08:44:40.072Z,0.54
2018-12-16T08:47:06.861Z,0.15
2018-12-16T08:49:33.608Z,0.14
2018-12-16T08:52:00.396Z,0.61
2018-12-16T08:54:30.138Z,0.47
2018-12-16T08:56:53.892Z,0.64
2018-12-16T08:59:20.666Z,0.89
2018-12-16T09:01:47.451Z,0.77
2018-12-16T09:04:14.172Z,0.71
2018-12-16T09:06:40.937Z,0.64
2018-12-16T09:09:07.915Z,0.38
2018-12-16T09:11:34.685Z,1.19
2018-12-16T09:14:01.421Z,1.51
2018-12-16T09:16:28.188Z,1.45
2018-12-16T09:18:54.932Z,1.21
2018-12-16T09:21:21.681Z,1.75
2018-12-16T09:23:48.432Z,1.54
2018-12-16T09:26:15.221Z,1.55
2018-12-16T09:28:41.956Z,2.19
2018-12-16T09:31:08.720Z,2.18
2018-12-16T09:33:35.496Z,2.23
2018-12-16T09:36:02.411Z,1.82
2018-12-16T09:38:29.155Z,2.27
2018-12-16T09:40:56.006Z,2.21
2018-12-16T09:43:22.763Z,2.29
2018-12-16T09:45:49.670Z,2.39
2018-12-16T09:48:16.316Z,1.98
2018-12-16T09:50:43.120Z,1.93
2018-12-16T09:53:09.901Z,1.95
2018-12-16T09:55:36.661Z,2.02
2018-12-16T09:58:03.455Z,1.60
2018-12-16T10:00:30.205Z,1.78
2018-12-16T10:02:56.962Z,1.99
2018-12-16T10:05:23.716Z,2.22
2018-12-16T10:07:50.476Z,1.72
2018-12-16T10:10:17.240Z,2.00
2018-12-16T10:12:44.005Z,1.75
2018-12-16T10:15:10.848Z,1.91
2018-12-16T10:17:37.674Z,2.01
2018-12-16T10:20:06.101Z,1.82
2018-12-16T10:22:32.884Z,2.43
2018-12-16T10:24:59.657Z,2.35
2018-12-16T10:27:26.405Z,2.49
2018-12-16T10:29:53.218Z,2.57
2018-12-16T10:32:19.953Z,3.12
2018-12-16T10:34:46.745Z,3.19
2018-12-16T10:37:13.504Z,3.34
2018-12-16T10:39:40.557Z,3.22
2018-12-16T10:42:07.320Z,2.92
2018-12-16T10:44:34.217Z,3.14
2018-12-16T10:47:00.978Z,3.22
2018-12-16T10:49:27.776Z,3.93
2018-12-16T10:51:54.616Z,4.17
2018-12-16T10:54:21.540Z,4.71
2018-12-16T10:56:48.132Z,4.24
2018-12-16T10:59:14.928Z,4.24
2018-12-16T11:01:41.672Z,4.20
2018-12-16T11:04:08.432Z,3.92
2018-12-16T11:06:35.215Z,3.69
2018-12-16T11:09:01.992Z,2.95
2018-12-16T11:11:28.772Z,3.41
2018-12-16T11:13:55.525Z,3.24
2018-12-16T11:16:22.310Z,3.29
2018-12-16T11:18:49.041Z,3.62
2018-12-16T11:21:15.796Z,3.27
2018-12-16T11:23:42.544Z,3.80
2018-12-16T11:26:10.672Z,4.04
2018-12-16T11:28:37.413Z,3.91
2018-12-16T11:31:04.277Z,3.77
2018-12-16T11:33:31.046Z,3.66
2018-12-16T11:35:57.861Z,3.87
2018-12-16T11:38:24.627Z,3.99
2018-12-16T11:40:51.392Z,3.82
2018-12-16T11:43:18.225Z,3.70
2018-12-16T11:45:45.045Z,3.98
2018-12-16T11:48:11.789Z,3.85
2018-12-16T11:50:38.640Z,3.40
2018-12-16T11:53:05.383Z,3.80
2018-12-16T11:55:32.244Z,3.80
2018-12-16T11:57:58.985Z,3.48
2018-12-16T12:00:25.736Z,3.13
2018-12-16T12:02:52.496Z,2.94
2018-12-16T12:05:19.256Z,3.12
2018-12-16T12:07:46.079Z,3.31
2018-12-16T12:10:12.840Z,3.52
2018-12-16T12:12:39.584Z,3.85
2018-12-16T12:15:06.352Z,3.88
2018-12-16T12:17:33.101Z,4.34
2018-12-16T12:19:59.850Z,4.31
2018-12-16T12:22:26.596Z,4.01
2018-12-16T12:24:53.380Z,3.96
2018-12-16T12:27:20.130Z,3.49
2018-12-16T12:29:46.920Z,3.48
2018-12-16T12:32:13.733Z,4.20
2018-12-16T12:34:40.485Z,3.42
2018-12-16T12:37:07.308Z,3.70
2018-12-16T12:39:34.052Z,3.68
2018-12-16T12:42:00.812Z,3.46
2018-12-16T12:44:27.576Z,3.37
2018-12-16T12:46:54.333Z,3.13
2018-12-16T12:49:21.092Z,3.30
2018-12-16T12:51:47.872Z,3.62
2018-12-16T12:54:14.614Z,3.31
2018-12-16T12:56:41.400Z,3.40
2018-12-16T12:59:08.165Z,3.51
2018-12-16T13:01:35.003Z,3.72
2018-12-16T13:04:01.751Z,4.18
2018-12-16T13:06:28.520Z,3.84
2018-12-16T13:08:55.304Z,4.09
2018-12-16T13:11:22.099Z,3.89
2018-12-16T13:13:48.830Z,4.03
2018-12-16T13:16:15.593Z,4.07
2018-12-16T13:18:42.364Z,3.88
2018-12-16T13:21:09.136Z,3.81
2018-12-16T13:23:35.888Z,3.58
2018-12-16T13:26:03.751Z,3.52
2018-12-16T13:28:30.493Z,3.84
2018-12-16T13:30:57.488Z,3.50
2018-12-16T13:33:24.260Z,3.46
2018-12-16T13:35:51.108Z,4.14
2018-12-16T13:38:17.844Z,4.30
2018-12-16T13:40:44.612Z,4.45
2018-12-16T13:43:11.369Z,4.45
2018-12-16T13:45:38.124Z,4.09
2018-12-16T13:48:04.898Z,3.76
2018-12-16T13:50:31.653Z,3.52
2018-12-16T13:52:58.413Z,3.20
2018-12-16T13:55:25.160Z,3.55
2018-12-16T13:57:51.947Z,3.19
2018-12-16T14:00:19.993Z,3.30
2018-12-16T14:02:45.876Z,3.48
2018-12-16T14:05:12.640Z,3.38
2018-12-16T14:07:39.407Z,3.65
2018-12-16T14:10:06.264Z,3.12
2018-12-16T14:12:33.030Z,3.16
2018-12-16T14:14:59.769Z,3.20
2018-12-16T14:17:26.532Z,3.29
2018-12-16T14:19:53.272Z,3.97
2018-12-16T14:22:20.041Z,3.60
2018-12-16T14:24:46.785Z,3.63
2018-12-16T14:27:13.565Z,3.46
2018-12-16T14:29:40.309Z,3.58
2018-12-16T14:32:07.100Z,3.44
2018-12-16T14:34:33.847Z,3.75
2018-12-16T14:37:00.708Z,4.18
2018-12-16T14:39:27.460Z,4.32
2018-12-16T14:41:54.216Z,3.85
2018-12-16T14:44:20.964Z,3.65
2018-12-16T14:46:47.720Z,3.63
2018-12-16T14:49:14.479Z,3.54
2018-12-16T14:51:41.244Z,3.28
2018-12-16T14:54:07.987Z,3.31
2018-12-16T14:56:34.741Z,3.37
2018-12-16T14:59:01.494Z,3.14
2018-12-16T15:01:28.245Z,3.35
2018-12-16T15:03:55.010Z,3.38
2018-12-16T15:06:21.752Z,3.26
2018-12-16T15:08:48.528Z,3.30
2018-12-16T15:11:15.288Z,3.12
2018-12-16T15:13:42.037Z,3.14
2018-12-16T15:16:10.246Z,3.28
2018-12-16T15:18:35.544Z,3.07
2018-12-16T15:21:02.295Z,3.11
2018-12-16T15:23:29.066Z,3.02
2018-12-16T15:26:01.892Z,3.04
2018-12-16T15:28:22.586Z,3.17
2018-12-16T15:30:49.332Z,3.20
2018-12-16T15:33:16.120Z,3.35
2018-12-16T15:35:42.886Z,3.16
2018-12-16T15:38:09.744Z,3.18
2018-12-16T15:40:36.521Z,2.97
2018-12-16T15:43:03.288Z,2.88
2018-12-16T15:45:30.048Z,2.98
2018-12-16T15:47:56.820Z,2.98
2018-12-16T15:50:23.564Z,2.95
2018-12-16T15:52:50.337Z,3.06
2018-12-16T15:55:17.096Z,3.23
2018-12-16T15:57:43.956Z,3.22
2018-12-16T16:00:10.733Z,3.61
2018-12-16T16:02:37.503Z,3.92
2018-12-16T16:05:04.457Z,3.50
2018-12-16T16:07:31.232Z,3.36
2018-12-16T16:09:58.028Z,3.33
2018-12-16T16:12:24.780Z,3.88
2018-12-16T16:14:51.539Z,3.38
2018-12-16T16:17:18.397Z,3.26
2018-12-16T16:19:45.148Z,3.37
2018-12-16T16:22:11.904Z,3.25
2018-12-16T16:24:38.676Z,3.24
2018-12-16T16:27:05.445Z,3.19
2018-12-16T16:29:32.211Z,3.29
2018-12-16T16:31:58.965Z,3.05
2018-12-16T16:34:25.737Z,3.26
2018-12-16T16:36:52.491Z,2.54
2018-12-16T16:39:19.268Z,2.36
2018-12-16T16:41:46.011Z,2.52
2018-12-16T16:44:14.366Z,3.02
2018-12-16T16:46:39.549Z,2.79
2018-12-16T16:49:06.291Z,2.60
2018-12-16T16:51:33.040Z,2.47
2018-12-16T16:53:59.905Z,2.72
2018-12-16T16:56:26.660Z,2.77
2018-12-16T16:58:53.438Z,3.17
2018-12-16T17:01:20.214Z,3.19
2018-12-16T17:03:46.997Z,2.76
2018-12-16T17:06:13.744Z,2.42
2018-12-16T17:08:40.577Z,2.28
2018-12-16T17:11:07.346Z,2.05
2018-12-16T17:13:34.122Z,1.87
2018-12-16T17:16:00.953Z,1.77
2018-12-16T17:18:27.737Z,1.79
2018-12-16T17:20:54.501Z,1.90
2018-12-16T17:23:21.265Z,1.69
2018-12-16T17:25:48.562Z,1.55
2018-12-16T17:28:14.821Z,1.78
2018-12-16T17:30:41.568Z,1.87
2018-12-16T17:33:08.394Z,2.08
2018-12-16T17:35:35.475Z,1.97
2018-12-16T17:38:02.250Z,2.04
2018-12-16T17:40:28.989Z,2.69
2018-12-16T17:42:55.845Z,3.05
2018-12-16T17:45:22.580Z,3.11
2018-12-16T17:47:49.340Z,3.23
2018-12-16T17:50:16.105Z,2.78
2018-12-16T17:52:42.892Z,3.35
2018-12-16T17:55:09.633Z,3.23
2018-12-16T17:57:36.409Z,2.52
2018-12-16T18:00:03.494Z,3.02
2018-12-16T18:02:30.253Z,2.61
2018-12-16T18:04:57.029Z,3.07
2018-12-16T18:07:23.779Z,3.34
2018-12-16T18:09:50.562Z,2.96
2018-12-16T18:12:17.295Z,2.82
2018-12-16T18:14:44.064Z,2.74
2018-12-16T18:17:10.839Z,2.82
2018-12-16T18:19:37.649Z,2.92
2018-12-16T18:22:04.452Z,2.89
2018-12-16T18:24:31.238Z,3.12
2018-12-16T18:26:58.006Z,2.80
2018-12-16T18:29:24.775Z,3.25
2018-12-16T18:31:51.520Z,2.74
2018-12-16T18:34:18.308Z,2.77
2018-12-16T18:36:45.060Z,3.55
2018-12-16T18:39:11.846Z,3.06
2018-12-16T18:41:38.605Z,3.07
2018-12-16T18:44:05.398Z,3.66
2018-12-16T18:46:32.187Z,3.80
2018-12-16T18:48:58.954Z,3.85
2018-12-16T18:51:25.704Z,3.27
2018-12-16T18:53:52.468Z,3.03
2018-12-16T18:56:19.240Z,3.01
2018-12-16T18:58:46.038Z,3.06
2018-12-16T19:01:13.120Z,3.46
2018-12-16T19:03:39.995Z,3.04
2018-12-16T19:06:06.811Z,2.94
2018-12-16T19:08:33.592Z,3.10
2018-12-16T19:11:00.356Z,3.14
2018-12-16T19:13:27.165Z,2.96
2018-12-16T19:15:53.925Z,2.99
2018-12-16T19:18:20.706Z,3.34
2018-12-16T19:20:47.448Z,3.62
2018-12-16T19:23:14.237Z,3.24
2018-12-16T19:25:42.348Z,3.49
2018-12-16T19:28:07.807Z,3.08
2018-12-16T19:30:34.545Z,3.08
2018-12-16T19:33:01.300Z,2.87
2018-12-16T19:35:28.093Z,2.81
2018-12-16T19:37:54.860Z,2.96
2018-12-16T19:40:21.619Z,3.14
2018-12-16T19:42:48.377Z,3.01
2018-12-16T19:45:15.163Z,3.05
2018-12-16T19:47:41.925Z,2.93
2018-12-16T19:50:08.716Z,2.92
2018-12-16T19:52:35.632Z,3.58
2018-12-16T19:55:02.440Z,3.24
2018-12-16T19:57:29.340Z,2.99
2018-12-16T19:59:56.109Z,2.99
2018-12-16T20:02:22.861Z,2.80
2018-12-16T20:04:55.268Z,2.70
2018-12-16T20:07:22.009Z,2.58
2018-12-16T20:09:48.780Z,2.86
2018-12-16T20:12:16.578Z,2.71
2018-12-16T20:14:42.363Z,2.47
2018-12-16T20:17:09.105Z,2.73
2018-12-16T20:19:35.856Z,2.64
2018-12-16T20:22:02.677Z,2.84
2018-12-16T20:24:29.405Z,2.76
2018-12-16T20:26:56.139Z,2.59
2018-12-16T20:29:22.908Z,2.58
2018-12-16T20:31:49.681Z,2.56
2018-12-16T20:34:16.452Z,2.59
2018-12-16T20:36:43.216Z,2.55
2018-12-16T20:39:09.988Z,2.47
2018-12-16T20:41:36.744Z,2.41
2018-12-16T20:44:03.537Z,2.48
2018-12-16T20:46:30.293Z,2.37
2018-12-16T20:48:57.069Z,2.37
2018-12-16T20:51:23.945Z,2.52
2018-12-16T20:53:50.705Z,2.50
2018-12-16T20:56:17.461Z,2.72
2018-12-16T20:58:44.224Z,2.50
2018-12-16T21:01:10.972Z,2.35
2018-12-16T21:03:37.745Z,2.33
2018-12-16T21:06:04.485Z,2.41
2018-12-16T21:08:31.245Z,2.14
2018-12-16T21:11:17.605Z,2.05
2018-12-16T21:13:50.196Z,1.95
2018-12-16T21:16:22.788Z,2.47
2018-12-16T21:18:49.584Z,2.23
2018-12-16T21:21:16.372Z,2.21
2018-12-16T21:23:43.136Z,2.33
2018-12-16T21:26:10.000Z,2.43
2018-12-16T21:28:36.769Z,2.51
2018-12-16T21:31:03.592Z,2.51
2018-12-16T21:33:30.349Z,3.05
2018-12-16T21:35:57.116Z,2.75
2018-12-16T21:38:23.859Z,2.87
2018-12-16T21:40:50.628Z,2.75
2018-12-16T21:43:17.380Z,2.69
2018-12-16T21:45:44.185Z,2.73
2018-12-16T21:48:10.878Z,2.80
2018-12-16T21:50:37.648Z,2.82
2018-12-16T21:53:04.392Z,2.77
2018-12-16T21:55:31.150Z,2.82
2018-12-16T21:57:57.912Z,2.77
2018-12-16T22:00:24.685Z,2.82
2018-12-16T22:02:51.425Z,2.79
2018-12-16T22:05:18.416Z,2.97
2018-12-16T22:07:45.160Z,2.65
2018-12-16T22:10:11.920Z,2.62
2018-12-16T22:12:38.671Z,2.63
2018-12-16T22:15:05.558Z,2.59
2018-12-16T22:17:32.288Z,2.62
2018-12-16T22:19:59.059Z,3.24
2018-12-16T22:22:25.800Z,2.94
2018-12-16T22:24:52.586Z,2.84
2018-12-16T22:27:19.323Z,2.83
2018-12-16T22:29:46.092Z,2.82
2018-12-16T22:32:12.960Z,3.22
2018-12-16T22:34:39.728Z,2.94
2018-12-16T22:37:06.476Z,2.72
2018-12-16T22:39:33.352Z,2.66
2018-12-16T22:42:00.119Z,2.69
2018-12-16T22:44:26.891Z,3.36
2018-12-16T22:46:53.648Z,3.18
2018-12-16T22:49:20.409Z,3.24
2018-12-16T22:51:47.184Z,3.18
2018-12-16T22:54:13.920Z,3.06
2018-12-16T22:56:40.669Z,3.00
2018-12-16T22:59:07.449Z,3.14
2018-12-16T23:01:34.212Z,3.06
2018-12-16T23:04:00.977Z,2.92
2018-12-16T23:06:27.759Z,3.29
2018-12-16T23:08:54.631Z,2.98
2018-12-16T23:11:21.387Z,3.03
2018-12-16T23:13:48.135Z,3.13
2018-12-16T23:16:14.900Z,3.46
2018-12-16T23:18:41.640Z,3.52
2018-12-16T23:21:08.413Z,3.10
2018-12-16T23:23:35.206Z,2.95
2018-12-16T23:26:02.125Z,2.99
2018-12-16T23:28:28.876Z,3.27
2018-12-16T23:30:55.624Z,3.12
2018-12-16T23:33:22.392Z,3.41
2018-12-16T23:35:49.137Z,2.98
2018-12-16T23:38:15.912Z,3.70
2018-12-16T23:40:42.654Z,3.30
2018-12-16T23:43:09.408Z,3.21
2018-12-16T23:45:36.169Z,3.14
2018-12-16T23:48:02.986Z,3.64
2018-12-16T23:50:29.733Z,3.09
2018-12-16T23:52:56.496Z,2.82
2018-12-16T23:55:23.246Z,2.98
2018-12-16T23:57:50.012Z,3.00
